Aviation Digital Data Service (ADDS)

Output produced by METARs form (0053 UTC 22 September 2017)
found at http://www.aviationweather.gov/adds/metars/
 
TAF WPDL 212310Z 2200/2212 30008KT 9999 FEW035 
     FM220600 04011KT 9999 SCT030